Forside
METAR-TAF:

METAR-TAF

Lufthavne :

Davenport Municipal Airport

Davenport, Iowa, USA

Breddekreds: 41-36-50N, længdekreds: 090-35-29W, højde: 229 m

Aktuelle vejr

Denne rapport blev lavet for 1 time og 12 minutter siden, kl. 05:52 UTC
Vind 3 kt fra østsydøst
Temperatur 15°C
Fugtighed 88%
Tryk 1020 hPa
Sigt: 16.1 km
Overskyet i en højde af 10000 ft

METAR: KDVN 060552Z AUTO 12003KT 10SM OVC100 15/13 A3012 RMK AO2 SLP193 T01500133 10239 20139 402560100 53006

Tid: 02:04 (07:04 UTC)


TAF: fraværende

Vejrobservationer og prognoser fra mere end 4000 lufthavne (METAR og TAF).

De gule og røde prikker repræsenterer de meteorologiske stationer.

Flyt musen over at se navnet på stationen.

Så klik over at se vejr observationer og prognoser.

At skifte det kort: Klik på de grønne knapper med et sort kors for at zoome ind; på den grønne knap med en bindestreg for at zoome ud; eller på de grønne pile for tilstødende kort.


METAR-TAF: